createdAt,value
2019-03-19T00:01:26.651Z,4.00
2019-03-19T00:03:52.874Z,4.00
2019-03-19T00:06:19.155Z,4.00
2019-03-19T00:08:54.638Z,3.90
2019-03-19T00:11:20.887Z,3.90
2019-03-19T00:13:47.093Z,3.90
2019-03-19T00:16:13.282Z,3.90
2019-03-19T00:18:39.515Z,3.90
2019-03-19T00:21:08.501Z,3.80
2019-03-19T00:23:34.786Z,3.80
2019-03-19T00:26:01.038Z,3.80
2019-03-19T00:28:27.321Z,3.70
2019-03-19T00:30:53.522Z,3.80
2019-03-19T00:33:19.719Z,3.80
2019-03-19T00:35:45.940Z,3.70
2019-03-19T00:38:12.148Z,3.70
2019-03-19T00:40:39.180Z,3.60
2019-03-19T00:43:05.399Z,3.60
2019-03-19T00:45:31.619Z,3.50
2019-03-19T00:47:57.841Z,3.50
2019-03-19T00:50:26.709Z,3.50
2019-03-19T00:52:52.895Z,3.50
2019-03-19T00:55:19.096Z,3.40
2019-03-19T00:57:45.367Z,3.40
2019-03-19T01:00:15.382Z,3.40
2019-03-19T01:02:44.458Z,3.40
2019-03-19T01:05:11.008Z,3.30
2019-03-19T01:07:39.954Z,3.30
2019-03-19T01:10:09.597Z,3.30
2019-03-19T01:12:45.179Z,3.30
2019-03-19T01:15:20.623Z,3.30
2019-03-19T01:17:46.820Z,3.30
2019-03-19T01:20:15.153Z,3.30
2019-03-19T01:22:41.445Z,3.30
2019-03-19T01:25:08.761Z,3.30
2019-03-19T01:27:36.140Z,3.20
2019-03-19T01:30:05.592Z,3.20
2019-03-19T01:32:31.924Z,3.20
2019-03-19T01:34:58.159Z,3.20
2019-03-19T01:37:24.351Z,3.20
2019-03-19T01:39:50.619Z,3.20
2019-03-19T01:42:16.847Z,3.20
2019-03-19T01:44:43.054Z,3.20
2019-03-19T01:47:09.251Z,3.20
2019-03-19T01:49:35.568Z,3.20
2019-03-19T01:52:01.776Z,3.20
2019-03-19T01:54:30.548Z,3.20
2019-03-19T01:56:56.871Z,3.10
2019-03-19T01:59:23.155Z,3.20
2019-03-19T02:01:49.368Z,3.10
2019-03-19T02:04:15.552Z,3.10
2019-03-19T02:06:41.874Z,3.10
2019-03-19T02:09:08.844Z,3.10
2019-03-19T02:11:35.044Z,3.10
2019-03-19T02:14:01.239Z,3.10
2019-03-19T02:16:27.407Z,3.10
2019-03-19T02:19:08.862Z,3.00
2019-03-19T02:21:35.077Z,3.00
2019-03-19T02:24:01.295Z,3.00
2019-03-19T02:26:27.519Z,3.00
2019-03-19T02:28:53.689Z,3.00
2019-03-19T02:31:20.015Z,3.00
2019-03-19T02:33:46.216Z,3.00
2019-03-19T02:36:12.464Z,3.00
2019-03-19T02:38:38.795Z,3.00
2019-03-19T02:41:07.941Z,3.00
2019-03-19T02:43:34.124Z,2.90
2019-03-19T02:46:00.393Z,2.90
2019-03-19T02:48:26.622Z,3.00
2019-03-19T02:50:52.828Z,3.00
2019-03-19T02:53:19.025Z,3.00
2019-03-19T02:55:45.242Z,3.00
2019-03-19T02:58:11.434Z,3.00
2019-03-19T03:00:37.722Z,3.00
2019-03-19T03:03:03.887Z,3.00
2019-03-19T03:05:30.229Z,3.00
2019-03-19T03:07:56.417Z,2.90
2019-03-19T03:10:22.622Z,2.90
2019-03-19T03:12:48.813Z,2.90
2019-03-19T03:15:16.127Z,2.80
2019-03-19T03:17:42.430Z,2.70
2019-03-19T03:20:15.372Z,2.70
2019-03-19T03:22:44.287Z,2.70
2019-03-19T03:25:14.407Z,2.70
2019-03-19T03:27:43.419Z,2.70
2019-03-19T03:30:15.425Z,2.70
2019-03-19T03:32:41.734Z,2.70
2019-03-19T03:35:09.630Z,2.70
2019-03-19T03:37:38.483Z,2.70
2019-03-19T03:40:10.634Z,2.70
2019-03-19T03:42:36.846Z,2.70
2019-03-19T03:45:06.138Z,2.80
2019-03-19T03:47:32.440Z,2.80
2019-03-19T03:49:58.700Z,2.80
2019-03-19T03:52:33.695Z,2.70
2019-03-19T03:54:59.883Z,2.70
2019-03-19T03:57:26.072Z,2.70
2019-03-19T03:59:52.527Z,2.60
2019-03-19T04:02:18.775Z,2.60
2019-03-19T04:05:05.576Z,2.60
2019-03-19T04:07:31.769Z,2.60
2019-03-19T04:09:57.958Z,2.50
2019-03-19T04:12:24.226Z,2.50
2019-03-19T04:14:50.493Z,2.50
2019-03-19T04:17:16.729Z,2.40
2019-03-19T04:19:46.070Z,2.40
2019-03-19T04:22:16.013Z,2.40
2019-03-19T04:24:45.293Z,2.40
2019-03-19T04:27:16.457Z,2.40
2019-03-19T04:29:39.599Z,2.30
2019-03-19T04:32:05.943Z,2.40
2019-03-19T04:34:32.120Z,2.40
2019-03-19T04:36:58.451Z,2.40
2019-03-19T04:39:24.608Z,2.30
2019-03-19T04:41:50.784Z,2.30
2019-03-19T04:44:19.787Z,2.30
2019-03-19T04:46:46.095Z,2.30
2019-03-19T04:49:12.256Z,2.30
2019-03-19T04:51:38.468Z,2.30
2019-03-19T04:54:04.698Z,2.20
2019-03-19T04:56:30.884Z,2.20
2019-03-19T04:58:57.092Z,2.20
2019-03-19T05:01:23.285Z,2.20
2019-03-19T05:03:49.554Z,2.20
2019-03-19T05:06:15.800Z,2.20
2019-03-19T05:08:41.996Z,2.20
2019-03-19T05:11:10.778Z,2.20
2019-03-19T05:13:36.983Z,2.20
2019-03-19T05:16:03.201Z,2.20
2019-03-19T05:18:31.243Z,2.20
2019-03-19T05:20:57.598Z,2.20
2019-03-19T05:23:23.807Z,2.10
2019-03-19T05:25:50.014Z,2.10
2019-03-19T05:28:16.213Z,2.10
2019-03-19T05:30:42.396Z,2.10
2019-03-19T05:33:08.685Z,2.10
2019-03-19T05:35:34.982Z,2.00
2019-03-19T05:38:01.199Z,2.10
2019-03-19T05:40:30.207Z,2.10
2019-03-19T05:42:56.553Z,2.10
2019-03-19T05:45:22.760Z,2.10
2019-03-19T05:47:49.086Z,2.10
2019-03-19T05:50:18.088Z,2.10
2019-03-19T05:52:44.266Z,2.10
2019-03-19T05:55:10.742Z,2.20
2019-03-19T05:57:48.412Z,2.10
2019-03-19T06:00:25.997Z,2.10
2019-03-19T06:02:52.191Z,2.10
2019-03-19T06:05:20.896Z,2.10
2019-03-19T06:07:52.558Z,2.20
2019-03-19T06:10:18.864Z,2.20
2019-03-19T06:12:45.055Z,2.20
2019-03-19T06:15:13.740Z,2.20
2019-03-19T06:17:39.957Z,2.20
2019-03-19T06:20:16.649Z,2.20
2019-03-19T06:23:01.584Z,2.20
2019-03-19T06:25:27.800Z,2.30
2019-03-19T06:28:00.487Z,2.30
2019-03-19T06:30:40.855Z,2.30
2019-03-19T06:33:07.141Z,2.40
2019-03-19T06:35:33.414Z,2.40
2019-03-19T06:37:59.643Z,2.50
2019-03-19T06:40:25.910Z,2.70
2019-03-19T06:42:52.116Z,2.80
2019-03-19T06:45:19.063Z,2.90
2019-03-19T06:47:45.568Z,3.00
2019-03-19T06:50:13.347Z,3.00
2019-03-19T06:52:51.785Z,3.00
2019-03-19T06:55:18.673Z,3.20
2019-03-19T06:57:44.915Z,3.30
2019-03-19T07:00:21.641Z,3.40
2019-03-19T07:02:50.911Z,3.40
2019-03-19T07:05:35.374Z,3.50
2019-03-19T07:08:01.703Z,3.60
2019-03-19T07:10:27.904Z,3.60
2019-03-19T07:12:54.119Z,3.70
2019-03-19T07:15:22.462Z,3.80
2019-03-19T07:17:48.911Z,3.80
2019-03-19T07:20:25.190Z,3.90
2019-03-19T07:23:10.183Z,4.00
2019-03-19T07:25:36.541Z,4.10
2019-03-19T07:28:05.534Z,4.20
2019-03-19T07:30:31.735Z,4.20
2019-03-19T07:32:57.963Z,4.30
2019-03-19T07:35:24.286Z,4.40
2019-03-19T07:37:53.360Z,4.50
2019-03-19T07:40:19.532Z,4.60
2019-03-19T07:42:45.838Z,4.70
2019-03-19T07:45:22.051Z,4.70
2019-03-19T07:47:50.889Z,4.80
2019-03-19T07:50:35.398Z,4.90
2019-03-19T07:53:01.583Z,4.90
2019-03-19T07:55:27.771Z,5.00
2019-03-19T07:57:53.964Z,5.00
2019-03-19T08:00:20.975Z,5.10
2019-03-19T08:02:47.186Z,5.10
2019-03-19T08:05:13.582Z,5.10
2019-03-19T08:07:39.784Z,5.20
2019-03-19T08:10:16.980Z,5.20
2019-03-19T08:12:43.147Z,5.20
2019-03-19T08:15:16.903Z,5.30
2019-03-19T08:17:43.304Z,5.30
2019-03-19T08:20:13.437Z,5.40
2019-03-19T08:22:42.423Z,5.40
2019-03-19T08:25:09.995Z,5.50
2019-03-19T08:27:48.050Z,5.50
2019-03-19T08:30:19.702Z,5.60
2019-03-19T08:33:04.461Z,5.70
2019-03-19T08:35:30.744Z,5.70
2019-03-19T08:37:59.699Z,5.80
2019-03-19T08:40:26.088Z,5.90
2019-03-19T08:42:52.294Z,6.00
2019-03-19T08:45:20.006Z,6.00
2019-03-19T08:47:48.845Z,6.10
2019-03-19T08:50:16.210Z,6.10
2019-03-19T08:52:42.412Z,6.30
2019-03-19T08:55:08.687Z,6.30
2019-03-19T08:57:53.382Z,6.40
2019-03-19T09:00:20.803Z,6.40
2019-03-19T09:02:49.882Z,6.50
2019-03-19T09:05:16.155Z,6.60
2019-03-19T09:07:42.467Z,6.70
2019-03-19T09:10:27.213Z,6.80
2019-03-19T09:12:53.377Z,7.00
2019-03-19T09:15:24.766Z,7.10
2019-03-19T09:17:53.794Z,7.30
2019-03-19T09:20:20.275Z,7.40
2019-03-19T09:22:46.575Z,7.50
2019-03-19T09:25:15.688Z,7.70
2019-03-19T09:28:00.787Z,7.80
2019-03-19T09:30:27.011Z,7.90
2019-03-19T09:32:53.203Z,8.00
2019-03-19T09:35:19.521Z,8.10
2019-03-19T09:38:04.381Z,8.20
2019-03-19T09:40:30.631Z,8.30
2019-03-19T09:42:56.864Z,8.30
2019-03-19T09:45:26.057Z,8.30
2019-03-19T09:47:55.176Z,8.40
2019-03-19T09:50:24.506Z,8.50
2019-03-19T09:52:52.827Z,8.50
2019-03-19T09:55:19.755Z,8.40
2019-03-19T09:57:46.038Z,8.20
2019-03-19T10:00:19.535Z,8.10
2019-03-19T10:02:45.858Z,8.10
2019-03-19T10:05:15.181Z,8.30
2019-03-19T10:08:00.256Z,8.80
2019-03-19T10:10:26.604Z,9.10
2019-03-19T10:12:55.594Z,9.20
2019-03-19T10:15:21.948Z,9.10
2019-03-19T10:17:50.788Z,9.00
2019-03-19T10:20:23.608Z,10.30
2019-03-19T10:22:56.086Z,12.90
2019-03-19T10:25:22.521Z,15.10
2019-03-19T10:27:48.826Z,15.30
2019-03-19T10:30:17.845Z,14.20
2019-03-19T10:32:44.261Z,12.80
2019-03-19T10:35:10.834Z,12.00
2019-03-19T10:37:55.565Z,12.00
2019-03-19T10:40:21.957Z,11.90
2019-03-19T10:43:06.715Z,11.60
2019-03-19T10:45:32.921Z,11.00
2019-03-19T10:47:59.118Z,10.60
2019-03-19T10:50:26.312Z,12.20
2019-03-19T10:52:52.516Z,15.00
2019-03-19T10:55:18.830Z,17.50
2019-03-19T10:57:47.729Z,17.50
2019-03-19T11:00:21.544Z,16.30
2019-03-19T11:02:48.076Z,15.00
2019-03-19T11:05:17.987Z,13.70
2019-03-19T11:07:44.188Z,13.50
2019-03-19T11:10:12.834Z,15.90
2019-03-19T11:12:42.064Z,18.70
2019-03-19T11:15:14.378Z,20.80
2019-03-19T11:17:59.166Z,19.90
2019-03-19T11:20:25.584Z,18.20
2019-03-19T11:22:52.103Z,16.60
2019-03-19T11:25:25.431Z,15.40
2019-03-19T11:28:10.288Z,15.10
2019-03-19T11:30:36.670Z,14.40
2019-03-19T11:33:03.316Z,13.80
2019-03-19T11:35:32.379Z,13.30
2019-03-19T11:38:01.227Z,13.10
2019-03-19T11:40:27.488Z,12.80
2019-03-19T11:42:54.066Z,12.40
2019-03-19T11:45:23.702Z,12.20
2019-03-19T11:47:50.316Z,12.40
2019-03-19T11:50:18.629Z,12.30
2019-03-19T11:52:44.867Z,12.10
2019-03-19T11:55:12.706Z,12.10
2019-03-19T11:57:38.998Z,11.90
2019-03-19T12:00:11.900Z,11.70
2019-03-19T12:02:38.418Z,11.60
2019-03-19T12:05:06.823Z,11.70
2019-03-19T12:07:52.065Z,11.80
2019-03-19T12:10:20.781Z,11.80
2019-03-19T12:12:47.008Z,11.90
2019-03-19T12:15:13.199Z,12.10
2019-03-19T12:17:45.842Z,12.10
2019-03-19T12:20:13.176Z,12.10
2019-03-19T12:22:40.100Z,12.10
2019-03-19T12:25:08.063Z,12.20
2019-03-19T12:27:37.017Z,12.30
2019-03-19T12:30:09.158Z,12.30
2019-03-19T12:32:35.701Z,12.40
2019-03-19T12:35:07.654Z,12.40
2019-03-19T12:37:34.258Z,12.40
2019-03-19T12:40:12.178Z,12.60
2019-03-19T12:42:38.521Z,12.80
2019-03-19T12:45:08.015Z,12.90
2019-03-19T12:47:37.154Z,12.90
2019-03-19T12:50:25.041Z,13.00
2019-03-19T12:52:51.497Z,12.90
2019-03-19T12:55:17.984Z,12.90
2019-03-19T12:57:46.987Z,13.00
2019-03-19T13:00:33.585Z,13.10
2019-03-19T13:02:52.628Z,13.20
2019-03-19T13:05:22.635Z,13.40
2019-03-19T13:08:04.307Z,13.40
2019-03-19T13:10:30.539Z,13.40
2019-03-19T13:12:56.813Z,13.40
2019-03-19T13:15:23.006Z,13.40
2019-03-19T13:17:52.362Z,13.40
2019-03-19T13:20:36.951Z,13.50
2019-03-19T13:23:03.506Z,13.70
2019-03-19T13:25:48.075Z,14.00
2019-03-19T13:28:14.775Z,14.20
2019-03-19T13:30:59.684Z,14.70
2019-03-19T13:33:25.889Z,15.30
2019-03-19T13:35:52.135Z,15.30
2019-03-19T13:38:18.332Z,15.20
2019-03-19T13:40:44.548Z,15.60
2019-03-19T13:43:10.827Z,16.60
2019-03-19T13:45:37.102Z,17.80
2019-03-19T13:48:03.634Z,19.00
2019-03-19T13:50:32.535Z,19.70
2019-03-19T13:53:14.093Z,20.30
2019-03-19T13:55:59.236Z,20.80
2019-03-19T13:58:28.075Z,21.50
2019-03-19T14:00:55.826Z,21.40
2019-03-19T14:03:25.190Z,21.40
2019-03-19T14:05:54.129Z,21.40
2019-03-19T14:08:20.387Z,21.40
2019-03-19T14:10:46.605Z,21.80
2019-03-19T14:13:12.904Z,22.40
2019-03-19T14:15:41.911Z,22.90
2019-03-19T14:18:10.940Z,23.00
2019-03-19T14:20:39.928Z,22.40
2019-03-19T14:23:06.146Z,21.40
2019-03-19T14:25:32.337Z,20.20
2019-03-19T14:27:58.606Z,19.40
2019-03-19T14:30:27.671Z,18.80
2019-03-19T14:33:03.520Z,18.20
2019-03-19T14:35:37.197Z,17.50
2019-03-19T14:37:57.973Z,17.40
2019-03-19T14:40:25.399Z,17.40
2019-03-19T14:42:51.755Z,17.00
2019-03-19T14:45:18.271Z,16.90
2019-03-19T14:48:05.046Z,16.60
2019-03-19T14:50:31.489Z,16.30
2019-03-19T14:52:57.707Z,15.90
2019-03-19T14:55:24.016Z,15.60
2019-03-19T14:57:51.082Z,15.30
2019-03-19T15:00:21.543Z,15.00
2019-03-19T15:02:47.881Z,14.70
2019-03-19T15:05:14.208Z,14.50
2019-03-19T15:07:40.749Z,14.40
2019-03-19T15:10:25.824Z,14.30
2019-03-19T15:12:52.283Z,14.20
2019-03-19T15:15:21.499Z,14.00
2019-03-19T15:17:50.388Z,14.00
2019-03-19T15:20:23.614Z,14.00
2019-03-19T15:22:49.853Z,14.10
2019-03-19T15:25:16.325Z,14.10
2019-03-19T15:27:42.628Z,14.20
2019-03-19T15:30:14.427Z,14.20
2019-03-19T15:32:40.784Z,14.10
2019-03-19T15:35:09.122Z,14.10
2019-03-19T15:37:37.984Z,14.10
2019-03-19T15:40:10.313Z,14.00
2019-03-19T15:42:36.528Z,14.00
2019-03-19T15:45:06.099Z,13.90
2019-03-19T15:47:35.006Z,13.90
2019-03-19T15:50:09.798Z,13.80
2019-03-19T15:52:36.078Z,13.70
2019-03-19T15:55:04.143Z,13.50
2019-03-19T15:57:30.384Z,13.40
2019-03-19T15:59:56.686Z,13.30
2019-03-19T16:02:41.657Z,13.20
2019-03-19T16:05:11.843Z,13.00
2019-03-19T16:07:38.097Z,12.80
2019-03-19T16:10:10.272Z,12.70
2019-03-19T16:12:55.297Z,12.60
2019-03-19T16:17:58.729Z,12.40
2019-03-19T16:20:25.015Z,12.30
2019-03-19T16:22:51.285Z,12.30
2019-03-19T16:25:17.694Z,12.20
2019-03-19T16:27:43.987Z,12.20
2019-03-19T16:30:13.773Z,12.20
2019-03-19T16:32:40.217Z,12.20
2019-03-19T16:35:07.770Z,12.10
2019-03-19T16:37:52.725Z,12.10
2019-03-19T16:40:23.058Z,12.10
2019-03-19T16:42:49.358Z,12.10
2019-03-19T16:45:34.488Z,12.10
2019-03-19T16:48:03.774Z,12.10
2019-03-19T16:50:32.963Z,12.00
2019-03-19T16:53:18.072Z,12.00
2019-03-19T16:55:48.251Z,11.90
2019-03-19T16:58:14.491Z,11.80
2019-03-19T17:00:40.801Z,11.70
2019-03-19T17:03:07.033Z,11.60
2019-03-19T17:05:33.259Z,11.70
2019-03-19T17:07:59.491Z,11.40
2019-03-19T17:10:29.792Z,11.30
2019-03-19T17:13:14.910Z,11.20
2019-03-19T17:16:00.212Z,11.20
2019-03-19T17:18:45.154Z,11.10
2019-03-19T17:21:11.488Z,10.90
2019-03-19T17:23:37.829Z,10.80
2019-03-19T17:26:10.388Z,10.70
2019-03-19T17:28:36.610Z,10.60
2019-03-19T17:31:02.896Z,10.50
2019-03-19T17:33:29.123Z,10.30
2019-03-19T17:35:55.420Z,10.20
2019-03-19T17:38:21.884Z,10.20
2019-03-19T17:40:48.245Z,10.10
2019-03-19T17:43:14.671Z,10.00
2019-03-19T17:45:40.860Z,9.90
2019-03-19T17:48:16.217Z,9.70
2019-03-19T17:50:39.984Z,9.70
2019-03-19T17:53:06.366Z,9.60
2019-03-19T17:55:32.703Z,9.50
2019-03-19T17:58:01.778Z,9.40
2019-03-19T18:00:32.591Z,9.30
2019-03-19T18:03:01.475Z,9.20
2019-03-19T18:05:27.691Z,9.10
2019-03-19T18:07:53.930Z,9.00
2019-03-19T18:10:20.532Z,9.00
2019-03-19T18:13:06.609Z,8.90
2019-03-19T18:15:51.198Z,8.80
2019-03-19T18:18:17.398Z,8.70
2019-03-19T18:20:43.691Z,8.70
2019-03-19T18:23:09.889Z,8.60
2019-03-19T18:25:36.082Z,8.60
2019-03-19T18:28:02.279Z,8.50
2019-03-19T18:30:31.065Z,8.50
2019-03-19T18:32:57.308Z,8.40
2019-03-19T18:35:23.693Z,8.40
2019-03-19T18:37:52.679Z,8.30
2019-03-19T18:40:19.531Z,8.30
2019-03-19T18:42:58.043Z,8.20
2019-03-19T18:45:24.299Z,8.20
2019-03-19T18:47:50.489Z,8.10
2019-03-19T18:50:20.608Z,8.10
2019-03-19T18:52:47.085Z,8.10
2019-03-19T18:55:13.385Z,8.00
2019-03-19T18:57:41.551Z,8.00
2019-03-19T19:00:23.253Z,7.90
2019-03-19T19:02:52.055Z,7.90
2019-03-19T19:05:22.207Z,7.90
2019-03-19T19:07:48.588Z,7.80
2019-03-19T19:10:15.849Z,7.80
2019-03-19T19:12:42.137Z,7.70
2019-03-19T19:15:12.124Z,7.70
2019-03-19T19:17:38.404Z,7.60
2019-03-19T19:20:08.359Z,7.60
2019-03-19T19:22:34.578Z,7.60
2019-03-19T19:25:00.850Z,7.50
2019-03-19T19:27:27.175Z,7.50
2019-03-19T19:29:53.392Z,7.50
2019-03-19T19:32:19.673Z,7.50
2019-03-19T19:34:45.940Z,7.40
2019-03-19T19:37:12.233Z,7.40
2019-03-19T19:39:38.596Z,7.40
2019-03-19T19:42:23.555Z,7.40
2019-03-19T19:44:49.778Z,7.30
2019-03-19T19:47:16.232Z,7.30
2019-03-19T19:49:54.840Z,7.30
2019-03-19T19:52:21.038Z,7.30
2019-03-19T19:54:47.287Z,7.30
2019-03-19T19:57:13.547Z,7.20
2019-03-19T19:59:39.790Z,7.20
2019-03-19T20:02:06.039Z,7.20
2019-03-19T20:04:32.262Z,7.10
2019-03-19T20:06:58.457Z,7.10
2019-03-19T20:09:27.344Z,7.00
2019-03-19T20:11:53.542Z,7.00
2019-03-19T20:14:19.727Z,7.00
2019-03-19T20:16:45.943Z,7.00
2019-03-19T20:19:12.184Z,6.90
2019-03-19T20:21:38.474Z,6.90
2019-03-19T20:24:04.802Z,6.90
2019-03-19T20:26:50.024Z,6.90
2019-03-19T20:29:18.746Z,6.80
2019-03-19T20:31:44.946Z,6.80
2019-03-19T20:34:11.207Z,6.80
2019-03-19T20:36:37.407Z,6.70
2019-03-19T20:39:05.159Z,6.70
2019-03-19T20:41:31.367Z,6.70
2019-03-19T20:43:57.729Z,6.60
2019-03-19T20:46:42.439Z,6.60
2019-03-19T20:49:08.766Z,6.60
2019-03-19T20:51:37.827Z,6.50
2019-03-19T20:54:04.889Z,6.50
2019-03-19T20:56:31.205Z,6.50
2019-03-19T20:58:57.274Z,6.40
2019-03-19T21:01:23.366Z,6.40
2019-03-19T21:04:07.582Z,6.30
2019-03-19T21:06:33.918Z,6.30
2019-03-19T21:08:59.976Z,6.20
2019-03-19T21:11:44.373Z,6.20
2019-03-19T21:14:28.872Z,6.20
2019-03-19T21:16:57.300Z,6.10
2019-03-19T21:19:41.572Z,6.10
2019-03-19T21:22:07.725Z,6.10
2019-03-19T21:24:33.786Z,6.10
2019-03-19T21:26:59.877Z,6.10
2019-03-19T21:29:25.945Z,6.10
2019-03-19T21:31:52.106Z,6.10
2019-03-19T21:34:18.262Z,6.10
2019-03-19T21:36:44.327Z,6.10
2019-03-19T21:39:10.374Z,6.20
2019-03-19T21:41:36.725Z,6.20
2019-03-19T21:44:05.389Z,6.20
2019-03-19T21:46:31.538Z,6.30
2019-03-19T21:49:00.681Z,6.30
2019-03-19T21:51:27.017Z,6.30
2019-03-19T21:54:05.690Z,6.30
2019-03-19T21:56:34.312Z,6.40
2019-03-19T21:59:00.454Z,6.40
2019-03-19T22:01:26.516Z,6.40
2019-03-19T22:04:02.606Z,6.40
2019-03-19T22:06:20.680Z,6.50
2019-03-19T22:08:46.716Z,6.50
2019-03-19T22:11:31.080Z,6.50
2019-03-19T22:13:57.226Z,6.50
2019-03-19T22:16:23.270Z,6.50
2019-03-19T22:18:49.431Z,6.50
2019-03-19T22:21:24.831Z,6.40
2019-03-19T22:23:53.681Z,6.50
2019-03-19T22:26:22.495Z,6.40
2019-03-19T22:28:51.203Z,6.40
2019-03-19T22:31:17.314Z,6.40
2019-03-19T22:33:43.355Z,6.40
2019-03-19T22:36:11.751Z,6.30
2019-03-19T22:38:40.048Z,6.30
2019-03-19T22:41:06.098Z,6.20
2019-03-19T22:43:32.164Z,6.20
2019-03-19T22:46:00.891Z,6.20
2019-03-19T22:48:27.004Z,6.10
2019-03-19T22:50:53.067Z,6.10
2019-03-19T22:53:21.906Z,6.10
2019-03-19T22:55:50.586Z,6.10
2019-03-19T22:58:19.391Z,6.00
2019-03-19T23:00:46.035Z,6.00
2019-03-19T23:03:12.109Z,5.90
2019-03-19T23:05:41.441Z,5.90
2019-03-19T23:08:07.530Z,5.90
2019-03-19T23:10:39.777Z,5.80
2019-03-19T23:13:05.915Z,5.80
2019-03-19T23:15:50.354Z,5.80
2019-03-19T23:18:16.488Z,5.80
2019-03-19T23:20:54.804Z,5.80
2019-03-19T23:23:20.841Z,5.80
2019-03-19T23:25:46.915Z,5.80
2019-03-19T23:28:13.069Z,5.70
2019-03-19T23:30:39.156Z,5.70
2019-03-19T23:33:07.934Z,5.70
2019-03-19T23:35:52.328Z,5.70
2019-03-19T23:38:21.108Z,5.70
2019-03-19T23:40:47.189Z,5.60
2019-03-19T23:43:13.242Z,5.60
2019-03-19T23:45:41.954Z,5.60
2019-03-19T23:48:08.032Z,5.60
2019-03-19T23:50:34.113Z,5.50
2019-03-19T23:53:03.087Z,5.50
2019-03-19T23:55:29.148Z,5.50
2019-03-19T23:57:55.257Z,5.50
